Here is the Quick Look data you requested

The Data originates at the National Weather Service, and is made available here by the UAlbany Department of Atmospheric and Environmental Sciences

Surface Observations

KAFN 230952Z AUTO 00000KT 10SM CLR M07/M08 A2989 RMK AO2 SLP136 T10671078 TSNO=
KASH 230956Z AUTO 29003KT 10SM CLR M01/M06 A2991 RMK AO2 SLP141 T10061061 TSNO=
KBML 230952Z AUTO 00000KT 10SM CLR M09/M11 A2989 RMK AO2 SLP139 I1001 T10941111
KCON 230951Z AUTO 31005KT 10SM CLR M01/M07 A2990 RMK AO2 SLP128 T10111072=
KCWN 230958Z AUTO 31011KT 10SM CLR 13/M03 A2984 RMK AO2 PK WND 16040/06 SLPNO
 T01301029 $=
KDAW 230951Z AUTO 30006KT 10SM CLR M02/M07 A2987 RMK AO2 SLP115 T10171067=
KEEN 230956Z AUTO 00000KT 10SM CLR M06/M07 A2994 RMK AO2 SLP157 T10611067
KHIE 230952Z AUTO 00000KT 10SM CLR M11/M13 A2991 RMK AO2 SLP145 I1000 T11061128=
KLCI 230956Z AUTO 25006KT 10SM CLR M02/M07 A2989 RMK AO2 SLP140 T10171067
KLEB 230953Z 00000KT 10SM CLR M05/M08 A2992 RMK AO2 SLP140 T10501083=
KMHT 230953Z 33005KT 10SM FEW200 02/M07 A2989 RMK AO2 SLP138 T00171072=
KMWN 230957Z 34025G35KT 90SM FEW/// FEW020 SCT050 SCT080 BKN100 M12/M16 RMK TPS
 LWR FEW048=
KPSM 230956Z 28002KT 10SM FEW180 SCT250 M03/M06 A2987 RMK AO2A SLP118 T10351057=